Time;durP1;ratioP1;P1;durP2;ratioP2;P2;SDS_P1;SDS_P2;PMS_P1;PMS_P2;Temp;Humidity;BMP_temperature;BMP_pressure;BME280_temperature;BME280_humidity;BME280_pressure;Samples;Min_cycle;Max_cycle;Signal;HPM_P1;HPM_P2
2022/08/02 00:00:12;;;;;;;5.70;2.10;;;;;;;18.92;76.73;101079.66;4999936;28;20049;-77
2022/08/02 00:02:43;;;;;;;6.72;2.28;;;;;;;18.92;76.58;101076.16;5020869;28;20260;-76
2022/08/02 00:05:11;;;;;;;4.78;1.95;;;;;;;18.88;76.69;101075.56;4993668;28;20361;-76
2022/08/02 00:07:39;;;;;;;7.10;1.75;;;;;;;18.85;77.15;101080.31;5017722;28;20079;-76
2022/08/02 00:10:09;;;;;;;4.72;2.00;;;;;;;18.80;77.33;101082.53;5008827;28;20055;-77
2022/08/02 00:12:37;;;;;;;6.78;1.88;;;;;;;18.81;77.40;101086.88;5026828;28;20041;-77
2022/08/02 00:15:06;;;;;;;3.72;1.98;;;;;;;18.80;77.06;101087.88;4997783;28;20050;-77
2022/08/02 00:17:34;;;;;;;4.57;2.00;;;;;;;18.81;76.98;101087.72;4995624;28;20049;-76
2022/08/02 00:20:01;;;;;;;5.75;1.83;;;;;;;18.83;76.84;101087.63;5030856;28;20053;-76
2022/08/02 00:22:28;;;;;;;6.65;2.38;;;;;;;18.83;76.49;101085.78;4999702;28;20076;-75
2022/08/02 00:24:55;;;;;;;8.00;3.00;;;;;;;18.85;76.66;101088.31;5025848;28;20060;-76
2022/08/02 00:27:22;;;;;;;8.52;2.45;;;;;;;18.83;76.43;101076.94;5013620;28;20057;-75
2022/08/02 00:29:50;;;;;;;4.90;2.25;;;;;;;18.81;76.32;101082.41;5024728;28;20049;-74
2022/08/02 00:32:22;;;;;;;4.88;2.20;;;;;;;18.79;76.62;101081.69;5014726;28;20336;-78
2022/08/02 00:34:50;;;;;;;12.38;2.97;;;;;;;18.78;76.74;101079.13;4992327;28;20911;-75
2022/08/02 00:37:17;;;;;;;4.10;1.55;;;;;;;18.76;76.66;101078.44;5020420;28;20132;-76
2022/08/02 00:39:44;;;;;;;5.38;2.40;;;;;;;18.71;76.88;101079.69;5017430;28;20052;-76
2022/08/02 00:42:14;;;;;;;5.47;2.30;;;;;;;18.71;76.68;101074.34;4990085;28;20496;-77
2022/08/02 00:44:41;;;;;;;2.90;1.60;;;;;;;18.70;76.64;101072.66;5000391;28;20530;-76
2022/08/02 00:47:08;;;;;;;4.88;2.03;;;;;;;18.70;76.47;101075.31;4992195;28;20128;-77
2022/08/02 00:49:36;;;;;;;5.72;2.10;;;;;;;18.69;76.21;101080.81;5044109;28;20052;-75
2022/08/02 00:52:04;;;;;;;4.40;1.70;;;;;;;18.69;75.99;101081.66;4986463;28;20527;-76
2022/08/02 00:54:31;;;;;;;6.90;2.35;;;;;;;18.69;76.02;101078.97;5018859;28;20053;-76
2022/08/02 00:56:58;;;;;;;6.28;2.45;;;;;;;18.68;75.85;101077.22;4989214;28;20057;-76
2022/08/02 00:59:25;;;;;;;10.23;2.78;;;;;;;18.68;75.40;101081.72;5036178;28;20051;-75
2022/08/02 01:01:54;;;;;;;8.70;2.25;;;;;;;18.66;75.40;101081.88;5032262;28;20095;-76
2022/08/02 01:04:25;;;;;;;9.65;2.38;;;;;;;18.67;75.29;101090.72;4997932;28;20434;-76
2022/08/02 01:07:03;;;;;;;8.98;2.20;;;;;;;18.67;74.91;101080.88;5015013;28;20080;-76
2022/08/02 01:09:41;;;;;;;7.55;2.35;;;;;;;18.68;74.91;101089.72;5010582;28;20402;-75
2022/08/02 01:12:08;;;;;;;8.10;1.92;;;;;;;18.68;75.04;101095.91;5023426;28;20050;-76
2022/08/02 01:14:36;;;;;;;9.30;2.42;;;;;;;18.68;74.77;101092.38;5012487;28;20053;-75
2022/08/02 01:17:15;;;;;;;8.57;2.30;;;;;;;18.68;74.69;101090.56;5014651;28;20079;-76
2022/08/02 01:20:04;;;;;;;10.48;2.20;;;;;;;18.66;74.38;101091.69;5013159;28;20136;-75
2022/08/02 01:23:01;;;;;;;3.85;1.63;;;;;;;18.68;74.16;101084.38;5018340;28;20045;-76
2022/08/02 01:25:44;;;;;;;10.13;2.08;;;;;;;18.67;74.51;101090.72;5021682;28;20507;-74
2022/08/02 01:28:27;;;;;;;8.90;2.42;;;;;;;18.63;74.40;101092.78;4995196;28;20046;-76
2022/08/02 01:31:06;;;;;;;5.13;1.80;;;;;;;18.61;74.33;101092.09;5006959;28;20056;-76
2022/08/02 01:33:40;;;;;;;10.98;2.45;;;;;;;18.59;74.16;101099.34;5021140;28;20420;-76
2022/08/02 01:36:10;;;;;;;7.65;2.03;;;;;;;18.55;74.42;101100.63;5037262;28;20065;-76
2022/08/02 01:38:47;;;;;;;6.22;2.25;;;;;;;18.53;74.20;101105.22;5038625;28;20104;-75
2022/08/02 01:41:18;;;;;;;8.40;2.50;;;;;;;18.53;74.56;101104.38;5013234;28;20045;-75
2022/08/02 01:43:49;;;;;;;8.65;3.17;;;;;;;18.52;74.61;101105.34;5008051;28;20042;-76
2022/08/02 01:46:16;;;;;;;8.13;1.80;;;;;;;18.48;74.55;101104.75;5024309;28;20453;-77
2022/08/02 01:48:44;;;;;;;6.07;2.10;;;;;;;18.45;74.06;101111.19;4998918;28;20053;-77
2022/08/02 01:51:14;;;;;;;6.55;1.92;;;;;;;18.44;73.81;101103.34;5017111;28;20063;-75
2022/08/02 01:53:43;;;;;;;6.78;1.83;;;;;;;18.45;73.57;101102.34;4993719;28;20400;-77
2022/08/02 01:56:11;;;;;;;6.95;1.98;;;;;;;18.46;73.33;101104.03;5014805;28;20041;-76
2022/08/02 01:58:39;;;;;;;7.72;1.92;;;;;;;18.46;72.85;101101.38;4994997;28;20057;-76
2022/08/02 02:01:08;;;;;;;7.97;2.28;;;;;;;18.48;72.83;101099.44;5030926;28;20048;-76
2022/08/02 02:03:41;;;;;;;8.05;2.13;;;;;;;18.48;72.52;101105.59;4998136;28;20048;-76
2022/08/02 02:06:09;;;;;;;11.18;2.60;;;;;;;18.50;72.55;101105.47;5021400;28;20240;-76
2022/08/02 02:08:39;;;;;;;10.30;2.00;;;;;;;18.48;72.15;101102.94;5003313;28;20472;-77
2022/08/02 02:11:06;;;;;;;7.22;2.38;;;;;;;18.48;72.12;101102.09;4998181;28;20049;-76
2022/08/02 02:13:56;;;;;;;6.88;2.10;;;;;;;18.43;71.95;101105.16;5005005;28;20526;-76
2022/08/02 02:16:23;;;;;;;8.60;1.83;;;;;;;18.41;72.11;101096.44;5012273;28;20068;-77
2022/08/02 02:18:51;;;;;;;12.85;2.17;;;;;;;18.42;71.60;101097.28;5017385;28;20427;-76
2022/08/02 02:21:19;;;;;;;8.55;2.45;;;;;;;18.41;71.30;101100.91;5012774;28;20045;-76
2022/08/02 02:23:46;;;;;;;3.70;1.52;;;;;;;18.40;71.39;101101.91;5031668;22;20041;-61
2022/08/02 02:26:16;;;;;;;6.57;2.03;;;;;;;18.40;71.23;101102.75;5023221;28;20057;-59
2022/08/02 02:29:00;;;;;;;8.55;1.85;;;;;;;18.40;70.91;101107.22;5039715;28;20114;-54
2022/08/02 02:31:33;;;;;;;7.05;1.88;;;;;;;18.39;70.81;101101.06;5031736;28;20049;-57
2022/08/02 02:34:03;;;;;;;10.40;2.15;;;;;;;18.40;70.72;101104.56;5034378;28;20054;-56
2022/08/02 02:36:32;;;;;;;6.05;2.15;;;;;;;18.41;70.40;101092.91;5030655;28;20061;-56
2022/08/02 02:39:03;;;;;;;10.75;2.13;;;;;;;18.40;70.74;101102.75;5030968;28;20046;-55
2022/08/02 02:41:30;;;;;;;10.25;2.33;;;;;;;18.37;70.58;101103.03;5033432;28;20064;-58
2022/08/02 02:43:59;;;;;;;7.35;2.17;;;;;;;18.38;70.58;101101.19;5037391;28;20119;-58
2022/08/02 02:46:27;;;;;;;8.95;2.28;;;;;;;18.36;70.59;101095.13;5027088;28;20049;-55
2022/08/02 02:48:54;;;;;;;11.07;2.20;;;;;;;18.34;70.16;101100.59;5030663;28;20051;-59
2022/08/02 02:51:23;;;;;;;9.27;2.75;;;;;;;18.32;70.01;101099.88;5040792;28;20052;-59
2022/08/02 02:53:51;;;;;;;7.55;1.90;;;;;;;18.33;69.89;101101.59;5034153;28;20049;-56
2022/08/02 02:56:39;;;;;;;8.30;1.83;;;;;;;18.30;69.49;101101.84;5034998;28;20045;-57
2022/08/02 02:59:07;;;;;;;10.95;2.38;;;;;;;18.28;69.14;101102.91;5036877;28;20152;-58
2022/08/02 03:01:34;;;;;;;6.97;2.53;;;;;;;18.23;68.95;101104.16;5033954;28;20466;-53
2022/08/02 03:04:23;;;;;;;7.75;2.47;;;;;;;18.23;68.49;101105.97;5036382;28;20041;-55
2022/08/02 03:06:50;;;;;;;7.85;2.60;;;;;;;18.22;68.35;101104.28;5021888;28;20067;-57
2022/08/02 03:09:17;;;;;;;8.23;1.95;;;;;;;18.20;67.78;101111.56;5033561;28;20445;-57
2022/08/02 03:11:45;;;;;;;5.05;1.98;;;;;;;18.14;67.47;101102.25;5034855;28;20151;-54
2022/08/02 03:14:12;;;;;;;8.05;2.03;;;;;;;18.12;67.24;101114.03;5036008;28;20128;-56
2022/08/02 03:16:44;;;;;;;7.70;2.10;;;;;;;18.09;67.26;101117.78;5018752;28;20049;-54
2022/08/02 03:19:12;;;;;;;9.57;2.65;;;;;;;18.04;66.82;101114.66;5038309;28;20053;-57
2022/08/02 03:21:41;;;;;;;8.70;2.20;;;;;;;18.00;66.86;101120.34;5023010;28;20146;-55
2022/08/02 03:24:08;;;;;;;7.97;2.30;;;;;;;17.95;66.57;101118.06;5040342;28;20053;-57
2022/08/02 03:26:36;;;;;;;11.70;2.40;;;;;;;17.93;66.48;101125.34;5030347;28;20046;-60
2022/08/02 03:29:03;;;;;;;7.45;2.60;;;;;;;17.88;66.68;101128.41;5027117;28;20518;-57
2022/08/02 03:31:40;;;;;;;8.60;2.58;;;;;;;17.85;66.70;101130.47;5032115;28;20049;-57
2022/08/02 03:34:07;;;;;;;7.20;2.30;;;;;;;17.79;66.76;101129.16;5017387;28;20056;-59
2022/08/02 03:36:34;;;;;;;8.65;2.08;;;;;;;17.76;66.58;101133.88;5034211;28;20053;-58
2022/08/02 03:39:02;;;;;;;9.90;2.92;;;;;;;17.73;66.90;101140.25;5029501;28;20049;-60
2022/08/02 03:41:30;;;;;;;8.40;2.22;;;;;;;17.71;66.96;101127.06;5031069;28;20136;-56
2022/08/02 03:43:57;;;;;;;8.77;2.47;;;;;;;17.70;67.33;101129.88;5028484;28;20068;-60
2022/08/02 03:46:24;;;;;;;11.50;2.30;;;;;;;17.66;67.47;101142.56;5025791;28;20062;-58
2022/08/02 03:48:53;;;;;;;9.65;2.60;;;;;;;17.64;67.84;101147.16;5022898;28;20053;-58
2022/08/02 03:51:21;;;;;;;6.90;1.75;;;;;;;17.60;68.00;101139.53;5033838;28;20045;-57
2022/08/02 03:53:48;;;;;;;12.85;2.70;;;;;;;17.58;68.24;101142.34;5036853;28;20046;-56
2022/08/02 03:56:16;;;;;;;9.38;2.80;;;;;;;17.58;68.37;101141.50;5032522;28;20053;-55
2022/08/02 03:58:43;;;;;;;7.50;2.20;;;;;;;17.56;69.52;101144.28;5024025;28;20057;-56
2022/08/02 04:01:15;;;;;;;9.95;2.17;;;;;;;17.59;69.07;101141.34;5030783;28;20417;-58
2022/08/02 04:03:42;;;;;;;6.45;1.95;;;;;;;17.63;69.31;101140.16;5031191;28;20050;-58
2022/08/02 04:06:09;;;;;;;7.07;2.05;;;;;;;17.69;69.43;101147.63;5029925;28;20053;-56
2022/08/02 04:08:37;;;;;;;7.68;2.15;;;;;;;17.78;68.75;101153.22;5026914;28;20057;-56
2022/08/02 04:13:51;;;;;;;8.70;2.33;;;;;;;17.98;68.65;101151.63;5031940;28;20411;-56
2022/08/02 04:16:30;;;;;;;5.93;1.95;;;;;;;18.05;68.69;101156.28;5026192;28;20069;-57
2022/08/02 04:19:00;;;;;;;5.25;1.65;;;;;;;18.11;68.30;101160.31;5032066;28;20052;-58
2022/08/02 04:21:32;;;;;;;6.20;1.75;;;;;;;18.14;68.37;101160.88;5027453;28;20133;-55
2022/08/02 04:24:30;;;;;;;10.25;2.47;;;;;;;18.18;68.50;101159.66;5025743;28;20046;-60
2022/08/02 04:26:59;;;;;;;6.25;1.90;;;;;;;18.22;68.83;101160.25;5034516;28;20396;-58
2022/08/02 04:29:46;;;;;;;7.75;2.17;;;;;;;18.27;68.93;101165.19;5021086;28;20061;-60
2022/08/02 04:32:14;;;;;;;4.80;1.80;;;;;;;18.33;68.72;101162.03;5031712;28;20061;-56
2022/08/02 04:34:43;;;;;;;9.95;2.60;;;;;;;18.38;68.54;101160.69;5029671;28;20519;-57
2022/08/02 04:37:30;;;;;;;8.93;2.10;;;;;;;18.41;68.75;101170.22;5027515;28;20053;-56
2022/08/02 04:39:57;;;;;;;11.25;2.67;;;;;;;18.45;68.29;101169.00;5023267;28;20521;-54
2022/08/02 04:42:25;;;;;;;5.03;1.90;;;;;;;18.47;68.04;101162.56;5033465;28;20046;-59
2022/08/02 04:44:52;;;;;;;7.43;1.80;;;;;;;18.50;67.27;101171.28;5040159;28;20053;-59
2022/08/02 04:47:20;;;;;;;6.60;1.95;;;;;;;18.54;67.04;101175.38;5038844;28;20049;-58
2022/08/02 04:50:08;;;;;;;8.60;2.00;;;;;;;18.60;66.63;101177.56;5026426;28;20058;-57
2022/08/02 04:52:35;;;;;;;4.55;2.28;;;;;;;18.61;66.31;101172.09;5033022;28;20066;-58
2022/08/02 04:55:02;;;;;;;8.70;2.17;;;;;;;18.67;66.03;101179.56;5038533;28;20064;-57
2022/08/02 05:00:19;;;;;;;8.50;2.38;;;;;;;18.75;65.29;101180.78;5035076;28;20057;-57
2022/08/02 05:02:47;;;;;;;13.43;2.53;;;;;;;18.78;65.06;101175.16;5041944;28;20055;-58
2022/08/02 05:05:15;;;;;;;11.80;2.42;;;;;;;18.81;64.82;101178.41;5035695;28;20645;-57
2022/08/02 05:07:42;;;;;;;7.80;2.20;;;;;;;18.90;64.54;101177.63;5024769;28;20053;-58
2022/08/02 05:10:09;;;;;;;5.93;2.03;;;;;;;18.97;64.45;101180.66;5036618;28;20144;-55
2022/08/02 05:12:37;;;;;;;17.95;3.13;;;;;;;19.04;63.52;101179.13;5036057;28;20049;-57
2022/08/02 05:15:05;;;;;;;5.32;1.77;;;;;;;19.09;63.50;101182.28;5037778;28;20065;-58
2022/08/02 05:17:35;;;;;;;9.85;2.60;;;;;;;19.20;62.55;101187.50;5038487;28;20049;-56
2022/08/02 05:20:04;;;;;;;9.40;1.88;;;;;;;19.24;62.62;101188.09;5050698;28;20061;-56
2022/08/02 05:22:31;;;;;;;8.88;1.83;;;;;;;19.29;62.51;101188.53;5050131;28;20067;-55
2022/08/02 05:24:58;;;;;;;7.75;1.95;;;;;;;19.28;62.27;101184.19;5036103;28;20117;-57
2022/08/02 05:27:25;;;;;;;6.70;2.25;;;;;;;19.26;62.25;101186.13;5043352;28;20059;-57
2022/08/02 05:29:53;;;;;;;7.82;2.05;;;;;;;19.28;62.41;101178.84;5034772;28;20064;-57
2022/08/02 05:32:24;;;;;;;12.43;2.80;;;;;;;19.31;62.01;101186.56;5042331;28;20059;-56
2022/08/02 05:34:52;;;;;;;8.40;2.00;;;;;;;19.36;62.10;101192.38;5032494;28;20053;-58
2022/08/02 05:37:19;;;;;;;11.07;2.47;;;;;;;19.44;61.66;101189.03;5035250;28;20065;-55
2022/08/02 05:39:46;;;;;;;7.68;2.25;;;;;;;19.43;61.50;101190.00;5037239;28;20044;-57
2022/08/02 05:42:22;;;;;;;9.43;2.83;;;;;;;19.40;61.50;101193.78;5034291;28;20506;-59
2022/08/02 05:44:49;;;;;;;10.57;2.72;;;;;;;19.41;61.02;101206.19;5036393;28;20444;-60
2022/08/02 05:47:16;;;;;;;8.43;2.17;;;;;;;19.41;60.89;101208.00;5037836;28;20163;-57
2022/08/02 05:49:43;;;;;;;15.70;2.72;;;;;;;19.42;60.01;101207.03;5038555;28;20057;-57
2022/08/02 05:52:18;;;;;;;8.30;2.55;;;;;;;19.52;60.47;101210.56;5027626;28;20065;-56
2022/08/02 05:54:54;;;;;;;8.07;2.20;;;;;;;19.62;60.11;101213.31;5049718;28;20493;-58
2022/08/02 05:57:40;;;;;;;7.32;2.53;;;;;;;19.73;59.80;101215.91;5038929;28;20482;-57
2022/08/02 06:00:12;;;;;;;9.27;2.97;;;;;;;19.83;59.69;101216.75;5029772;28;20060;-57
2022/08/02 06:02:41;;;;;;;9.48;2.50;;;;;;;19.90;58.99;101217.06;5039346;28;20050;-59
2022/08/02 06:05:18;;;;;;;11.05;2.88;;;;;;;19.93;59.02;101220.31;5033682;28;20049;-57
2022/08/02 06:07:46;;;;;;;14.25;2.97;;;;;;;19.80;58.50;101230.38;5037352;28;20041;-57
2022/08/02 06:10:15;;;;;;;11.32;2.83;;;;;;;19.92;58.69;101225.78;5035187;28;20553;-54
2022/08/02 06:12:47;;;;;;;7.57;2.63;;;;;;;20.06;58.52;101228.06;5027263;28;20386;-56
2022/08/02 06:15:16;;;;;;;8.65;2.58;;;;;;;20.14;57.77;101230.91;5037686;28;20045;-57
2022/08/02 06:17:43;;;;;;;10.48;2.75;;;;;;;20.09;57.29;101221.63;5027991;28;20045;-56
2022/08/02 06:20:13;;;;;;;13.02;3.05;;;;;;;20.07;56.69;101227.09;5034286;28;20053;-58
2022/08/02 06:22:42;;;;;;;10.82;2.33;;;;;;;19.87;57.25;101228.88;5045351;28;20061;-57
2022/08/02 06:25:11;;;;;;;14.93;2.45;;;;;;;19.95;57.08;101228.22;5030548;28;20064;-55
2022/08/02 06:28:03;;;;;;;11.88;2.50;;;;;;;20.04;57.03;101230.06;5033101;28;20049;-57
2022/08/02 06:30:37;;;;;;;10.75;2.78;;;;;;;20.14;56.71;101219.38;5034002;28;20056;-58
2022/08/02 06:33:05;;;;;;;21.25;3.50;;;;;;;20.15;56.66;101218.38;5027899;28;20076;-59
2022/08/02 06:35:34;;;;;;;14.10;2.75;;;;;;;20.13;56.05;101226.56;5034435;28;20386;-57
2022/08/02 06:38:02;;;;;;;16.35;3.38;;;;;;;19.98;56.54;101225.25;5032840;28;20064;-58
2022/08/02 06:40:32;;;;;;;6.65;2.70;;;;;;;20.16;56.32;101223.59;5035784;28;20061;-57
2022/08/02 06:43:22;;;;;;;12.23;2.40;;;;;;;20.35;56.05;101216.56;5046783;28;20049;-58
2022/08/02 06:45:49;;;;;;;12.65;2.78;;;;;;;20.36;55.27;101218.28;5021442;28;20524;-58
2022/08/02 06:48:16;;;;;;;10.35;2.67;;;;;;;20.50;54.89;101219.75;5030088;28;20413;-56
2022/08/02 06:50:44;;;;;;;12.55;2.72;;;;;;;20.60;54.63;101216.06;5030798;28;20041;-59
2022/08/02 06:53:11;;;;;;;7.93;3.03;;;;;;;20.61;54.38;101215.06;5037554;28;20053;-58
2022/08/02 06:55:38;;;;;;;10.68;2.72;;;;;;;20.69;54.44;101220.56;5032211;28;20091;-58
2022/08/02 06:58:11;;;;;;;8.75;2.38;;;;;;;20.80;54.09;101211.53;5032894;28;20340;-59
2022/08/02 07:00:39;;;;;;;8.23;2.00;;;;;;;20.87;53.61;101214.50;5032452;28;20045;-55
2022/08/02 07:03:07;;;;;;;11.60;2.58;;;;;;;20.86;52.51;101210.16;5034782;28;20052;-55
2022/08/02 07:05:34;;;;;;;7.25;2.22;;;;;;;20.55;53.38;101212.13;5032571;28;20049;-56
2022/08/02 07:08:01;;;;;;;9.07;2.25;;;;;;;20.72;53.22;101211.44;5031681;28;20057;-57
2022/08/02 07:10:29;;;;;;;10.70;2.30;;;;;;;20.63;53.36;101202.41;5034581;28;20057;-58
2022/08/02 07:12:56;;;;;;;8.88;2.42;;;;;;;20.71;53.17;101199.00;5035875;28;20054;-59
2022/08/02 07:15:26;;;;;;;13.20;2.38;;;;;;;20.69;53.51;101199.16;5036813;28;20076;-54
2022/08/02 07:17:53;;;;;;;11.73;2.42;;;;;;;20.73;53.04;101203.25;5031107;28;20086;-59
2022/08/02 07:20:20;;;;;;;9.23;2.35;;;;;;;20.68;53.25;101210.03;5037841;28;20057;-57
2022/08/02 07:22:47;;;;;;;9.90;2.60;;;;;;;20.66;53.30;101202.13;5034789;28;20060;-59
2022/08/02 07:25:14;;;;;;;14.07;2.20;;;;;;;20.70;52.97;101202.69;5026934;28;20402;-59
2022/08/02 07:27:41;;;;;;;11.80;2.28;;;;;;;20.73;53.52;101203.25;5028171;28;20065;-59
2022/08/02 07:30:09;;;;;;;14.43;3.65;;;;;;;20.82;53.43;101203.38;5033933;28;20060;-58
2022/08/02 07:32:36;;;;;;;8.15;2.15;;;;;;;20.91;53.09;101200.69;5037733;28;20055;-58
2022/08/02 07:35:04;;;;;;;10.05;3.55;;;;;;;21.07;53.07;101202.75;5029452;28;20307;-57
2022/08/02 07:37:35;;;;;;;12.90;2.55;;;;;;;21.09;52.46;101206.16;5029479;28;20525;-58
2022/08/02 07:40:23;;;;;;;12.55;2.47;;;;;;;21.17;52.62;101203.59;5036505;28;20416;-58
2022/08/02 07:42:53;;;;;;;12.70;2.75;;;;;;;21.16;52.12;101212.63;5033681;28;20068;-55
2022/08/02 07:45:28;;;;;;;7.00;2.42;;;;;;;21.13;51.96;101207.56;5026577;28;20053;-57
2022/08/02 07:47:55;;;;;;;7.68;2.00;;;;;;;21.04;52.00;101197.72;5036667;28;20056;-56
2022/08/02 07:50:23;;;;;;;13.45;2.47;;;;;;;21.22;51.44;101189.78;5032592;28;20076;-59
2022/08/02 07:52:50;;;;;;;5.90;1.88;;;;;;;21.40;51.41;101192.56;5031510;28;20065;-59
2022/08/02 07:55:24;;;;;;;10.77;2.08;;;;;;;21.61;50.50;101195.00;5029257;28;20170;-59
2022/08/02 07:58:07;;;;;;;7.93;2.00;;;;;;;21.71;49.33;101199.34;5025711;28;20053;-58
2022/08/02 08:00:42;;;;;;;6.13;1.65;;;;;;;21.78;48.80;101193.38;5033364;28;20057;-59
2022/08/02 08:03:09;;;;;;;7.00;1.75;;;;;;;21.76;48.34;101192.69;5035364;28;20053;-55
2022/08/02 08:05:36;;;;;;;5.50;1.58;;;;;;;21.59;48.26;101197.84;5032144;28;20045;-59
2022/08/02 08:08:04;;;;;;;6.65;1.80;;;;;;;21.56;48.76;101200.81;5032267;28;20049;-57
2022/08/02 08:10:32;;;;;;;13.27;2.10;;;;;;;21.62;48.68;101210.09;5032275;28;20045;-59
2022/08/02 08:12:59;;;;;;;7.32;1.60;;;;;;;21.45;48.73;101191.13;5033982;28;20085;-58
2022/08/02 08:15:26;;;;;;;6.70;1.40;;;;;;;21.60;48.41;101209.41;5037413;28;20057;-57
2022/08/02 08:17:53;;;;;;;5.88;2.00;;;;;;;21.41;48.07;101197.78;5029619;28;20145;-57
2022/08/02 08:20:21;;;;;;;8.25;2.00;;;;;;;21.63;48.29;101190.34;5033209;28;20429;-55
2022/08/02 08:22:48;;;;;;;8.27;2.72;;;;;;;21.73;47.79;101185.78;5036522;28;20099;-55
2022/08/02 08:25:16;;;;;;;5.05;1.48;;;;;;;21.95;47.45;101195.25;5023772;28;20506;-58
2022/08/02 08:27:51;;;;;;;9.13;1.80;;;;;;;21.92;46.65;101193.69;5028845;28;20069;-59
2022/08/02 08:30:19;;;;;;;5.60;2.17;;;;;;;21.85;47.16;101186.44;5029869;28;20059;-56
2022/08/02 08:32:47;;;;;;;4.20;1.33;;;;;;;22.00;47.10;101179.56;5028942;28;20163;-56
2022/08/02 08:35:14;;;;;;;6.88;1.55;;;;;;;22.05;47.05;101182.63;5024936;28;20063;-59
2022/08/02 08:37:41;;;;;;;10.00;2.00;;;;;;;22.17;45.79;101173.41;5036527;28;20050;-54
2022/08/02 08:40:09;;;;;;;8.90;2.05;;;;;;;22.11;46.39;101178.47;5030373;28;20664;-56
2022/08/02 08:42:37;;;;;;;9.30;1.95;;;;;;;22.13;46.71;101185.44;5027972;28;20049;-57
2022/08/02 08:45:06;;;;;;;8.13;1.70;;;;;;;22.28;46.58;101182.22;5026960;28;20072;-58
2022/08/02 08:47:38;;;;;;;7.13;1.52;;;;;;;22.24;46.44;101178.97;5033120;28;20061;-58
2022/08/02 08:50:10;;;;;;;8.13;1.50;;;;;;;22.49;45.88;101177.38;5042813;22;20046;-83
2022/08/02 08:53:06;;;;;;;8.65;1.33;;;;;;;22.62;45.45;101174.31;5032421;28;20410;-84
2022/08/02 08:55:34;;;;;;;4.25;1.60;;;;;;;22.81;45.77;101175.97;5016205;28;20071;-82
2022/08/02 08:58:03;;;;;;;7.85;1.67;;;;;;;23.02;45.45;101181.84;5015792;28;20191;-83
2022/08/02 09:00:34;;;;;;;7.53;2.05;;;;;;;23.07;45.18;101186.75;5036174;28;20045;-83
2022/08/02 09:03:02;;;;;;;13.18;2.83;;;;;;;23.09;45.83;101185.56;5027318;28;20072;-84
2022/08/02 09:05:30;;;;;;;12.75;2.20;;;;;;;23.40;44.92;101183.25;5016866;28;20052;-82
2022/08/02 09:07:57;;;;;;;4.05;1.45;;;;;;;23.44;44.18;101179.22;5034153;28;20084;-83
2022/08/02 09:10:42;;;;;;;6.90;1.73;;;;;;;23.52;44.12;101177.59;5023234;28;20053;-84
2022/08/02 09:13:16;;;;;;;7.20;1.60;;;;;;;23.62;44.32;101176.47;5038710;28;20064;-84
2022/08/02 09:16:04;;;;;;;7.82;2.13;;;;;;;23.82;43.77;101170.84;5037920;28;20256;-84
2022/08/02 09:18:39;;;;;;;4.88;1.35;;;;;;;23.90;43.36;101171.69;5010107;28;20049;-83
2022/08/02 09:21:08;;;;;;;3.72;1.52;;;;;;;23.74;43.10;101183.25;4999932;28;20064;-82
2022/08/02 09:23:40;;;;;;;3.85;1.17;;;;;;;23.78;43.52;101180.25;5033867;28;20393;-84
2022/08/02 09:26:10;;;;;;;5.50;2.55;;;;;;;23.73;42.97;101170.84;5037884;28;20041;-84
2022/08/02 09:28:40;;;;;;;9.02;2.17;;;;;;;23.53;43.48;101164.00;5049093;28;20037;-82
2022/08/02 09:31:15;;;;;;;8.13;1.50;;;;;;;23.73;43.79;101173.53;5033540;28;20041;-82
2022/08/02 09:33:43;;;;;;;4.43;1.30;;;;;;;24.04;43.30;101156.78;5037570;28;20553;-83
2022/08/02 09:36:18;;;;;;;8.35;1.95;;;;;;;24.16;43.00;101162.69;5034647;28;20080;-84
2022/08/02 09:39:03;;;;;;;6.70;2.22;;;;;;;24.15;42.35;101159.16;5041351;28;20553;-84
2022/08/02 09:41:35;;;;;;;6.07;1.45;;;;;;;24.11;42.57;101165.88;5039101;28;20412;-84
2022/08/02 09:44:05;;;;;;;4.07;1.48;;;;;;;24.15;42.41;101159.16;5020587;28;20057;-84
2022/08/02 09:46:44;;;;;;;9.48;1.60;;;;;;;24.10;42.77;101158.81;5022672;28;20067;-82
2022/08/02 09:49:16;;;;;;;6.97;1.92;;;;;;;24.29;41.94;101151.44;5026478;28;20046;-82
2022/08/02 09:51:44;;;;;;;7.63;1.70;;;;;;;24.48;41.90;101157.34;5040865;28;20569;-84
2022/08/02 09:54:20;;;;;;;8.10;1.17;;;;;;;24.73;41.33;101151.97;5036565;28;20049;-83
2022/08/02 09:56:49;;;;;;;5.88;1.20;;;;;;;24.72;41.01;101156.53;5034328;28;20029;-84
2022/08/02 09:59:18;;;;;;;6.00;1.33;;;;;;;24.80;41.27;101147.56;5038179;28;20056;-82
2022/08/02 10:01:47;;;;;;;2.65;0.85;;;;;;;25.01;41.29;101144.34;5055669;28;20046;-82
2022/08/02 10:04:31;;;;;;;11.73;2.17;;;;;;;24.76;41.66;101141.69;5030104;28;20152;-83
2022/08/02 10:07:05;;;;;;;9.82;1.75;;;;;;;25.12;41.33;101146.69;5045834;28;20120;-84
2022/08/02 10:09:32;;;;;;;7.53;1.50;;;;;;;25.46;40.74;101151.81;5023920;28;20275;-82
2022/08/02 10:12:00;;;;;;;7.63;1.90;;;;;;;25.64;40.26;101156.13;5021761;28;20042;-84
2022/08/02 10:14:29;;;;;;;8.10;1.65;;;;;;;25.21;40.33;101152.91;5047770;28;20116;-83
2022/08/02 10:16:57;;;;;;;8.52;1.80;;;;;;;25.23;40.15;101159.81;5022078;28;20048;-83
2022/08/02 10:19:25;;;;;;;4.88;1.50;;;;;;;25.22;40.47;101152.75;5054251;28;20060;-80
2022/08/02 10:22:15;;;;;;;5.35;1.20;;;;;;;25.34;39.91;101157.75;5044782;28;20136;-83
2022/08/02 10:24:45;;;;;;;10.07;1.63;;;;;;;25.37;40.02;101158.25;5019450;28;20056;-81
2022/08/02 10:27:19;;;;;;;6.72;1.30;;;;;;;24.96;40.09;101154.81;5036821;28;20051;-81
2022/08/02 10:29:50;;;;;;;14.13;2.17;;;;;;;24.97;40.23;101151.94;5021303;28;20072;-81
2022/08/02 10:32:29;;;;;;;6.65;1.67;;;;;;;25.10;40.15;101164.06;5029892;28;20140;-83
2022/08/02 10:35:04;;;;;;;4.45;1.30;;;;;;;24.68;40.55;101165.13;5038602;28;20152;-83
2022/08/02 10:37:52;;;;;;;4.20;1.20;;;;;;;24.44;40.89;101174.00;5023144;28;20045;-82
2022/08/02 10:40:22;;;;;;;6.20;1.13;;;;;;;24.47;40.84;101162.91;5024438;28;20045;-83
2022/08/02 10:42:51;;;;;;;3.88;1.30;;;;;;;24.69;40.28;101173.00;5037324;28;20057;-81
2022/08/02 10:45:21;;;;;;;6.28;1.20;;;;;;;24.78;39.89;101173.00;5046009;28;20071;-84
2022/08/02 10:48:10;;;;;;;2.45;0.90;;;;;;;25.11;39.72;101155.81;5038484;28;20043;-83
2022/08/02 10:50:51;;;;;;;3.65;0.80;;;;;;;25.51;39.39;101148.59;5040809;28;20115;-81
2022/08/02 10:53:20;;;;;;;10.82;1.35;;;;;;;25.84;39.15;101151.97;5036847;28;20077;-83
2022/08/02 10:55:47;;;;;;;6.38;1.70;;;;;;;25.92;38.10;101145.72;5023007;28;20123;-84
2022/08/02 10:58:17;;;;;;;5.03;1.05;;;;;;;26.07;38.02;101125.03;5036476;28;20106;-82
2022/08/02 11:00:44;;;;;;;7.55;1.48;;;;;;;26.16;37.59;101123.97;5046872;28;20041;-82
2022/08/02 11:03:27;;;;;;;5.43;1.65;;;;;;;25.63;37.96;101133.72;5046408;28;20163;-83
2022/08/02 11:06:03;;;;;;;4.07;1.20;;;;;;;25.60;37.78;101127.81;5041753;28;20091;-83
2022/08/02 11:08:30;;;;;;;4.68;1.13;;;;;;;25.88;38.36;101118.25;5039047;28;20141;-82
2022/08/02 11:11:00;;;;;;;3.50;1.35;;;;;;;26.24;37.95;101109.56;5043677;28;20057;-84
2022/08/02 11:13:28;;;;;;;7.15;1.35;;;;;;;26.36;36.67;101104.59;5024848;28;20060;-83
2022/08/02 11:16:00;;;;;;;4.32;1.40;;;;;;;26.31;36.66;101107.00;5044418;28;20041;-84
2022/08/02 11:18:49;;;;;;;5.50;1.02;;;;;;;26.32;35.99;101116.75;5026725;28;20050;-82
2022/08/02 11:21:28;;;;;;;6.00;1.45;;;;;;;26.46;36.03;101111.44;5031807;28;20041;-83
2022/08/02 11:23:56;;;;;;;3.22;1.20;;;;;;;26.66;35.62;101098.25;5048173;28;20025;-81
2022/08/02 11:26:29;;;;;;;4.00;1.08;;;;;;;26.80;35.46;101099.28;5044998;28;20142;-84
2022/08/02 11:28:58;;;;;;;7.68;1.20;;;;;;;26.93;35.73;101088.69;5046756;28;20053;-84
2022/08/02 11:31:26;;;;;;;3.10;1.30;;;;;;;26.90;35.55;101089.06;5042597;28;20430;-84
2022/08/02 11:33:53;;;;;;;5.72;1.50;;;;;;;26.61;35.75;101091.72;5008318;28;20128;-82
2022/08/02 11:36:21;;;;;;;4.78;1.48;;;;;;;26.68;35.51;101096.19;5045420;28;20050;-82
2022/08/02 11:38:49;;;;;;;5.38;1.33;;;;;;;26.71;35.16;101093.13;5023434;28;20083;-83
2022/08/02 11:41:20;;;;;;;8.07;1.52;;;;;;;26.58;35.77;101098.34;5026133;28;20091;-83
2022/08/02 11:44:07;;;;;;;2.85;1.33;;;;;;;26.63;36.22;101103.19;5043048;28;20517;-82
2022/08/02 11:46:35;;;;;;;9.18;1.50;;;;;;;26.66;35.72;101100.13;5022622;28;20051;-84